createdAt,value
2018-12-24T05:00:35.152Z,981.40
2018-12-24T05:01:35.110Z,981.46
2018-12-24T05:02:35.109Z,981.47
2018-12-24T05:03:35.093Z,981.54
2018-12-24T05:04:35.084Z,981.54
2018-12-24T05:05:35.066Z,981.57
2018-12-24T05:06:35.066Z,981.60
2018-12-24T05:07:35.049Z,981.62
2018-12-24T05:08:35.033Z,981.66
2018-12-24T05:09:35.017Z,981.62
2018-12-24T05:10:35.002Z,981.70
2018-12-24T05:11:34.992Z,981.77
2018-12-24T05:12:35.001Z,981.86
2018-12-24T05:13:40.906Z,981.85
2018-12-24T05:14:35.962Z,981.93
2018-12-24T05:15:34.946Z,981.98
2018-12-24T05:16:34.935Z,982.02
2018-12-24T05:17:34.937Z,981.98
2018-12-24T05:18:34.912Z,982.07
2018-12-24T05:19:34.906Z,982.10
2018-12-24T05:20:34.893Z,982.19
2018-12-24T05:21:34.882Z,982.27
2018-12-24T05:22:34.878Z,982.30
2018-12-24T05:23:34.855Z,982.42
2018-12-24T05:24:34.844Z,982.41
2018-12-24T05:25:34.832Z,982.43
2018-12-24T05:26:34.826Z,982.45
2018-12-24T05:27:34.827Z,982.50
2018-12-24T05:28:34.800Z,982.54
2018-12-24T05:29:34.794Z,982.54
2018-12-24T05:30:34.775Z,982.59
2018-12-24T05:31:34.766Z,982.63
2018-12-24T05:32:34.774Z,982.60
2018-12-24T05:33:34.743Z,982.67
2018-12-24T05:34:34.731Z,982.70
2018-12-24T05:35:34.719Z,982.75
2018-12-24T05:36:34.709Z,982.75
2018-12-24T05:37:34.714Z,982.76
2018-12-24T05:38:34.686Z,982.79
2018-12-24T05:39:34.674Z,982.79
2018-12-24T05:40:34.707Z,982.85
2018-12-24T05:41:34.652Z,982.89
2018-12-24T05:42:34.656Z,982.91
2018-12-24T05:43:34.634Z,982.89
2018-12-24T05:44:34.619Z,982.99
2018-12-24T05:45:34.606Z,983.02
2018-12-24T05:46:34.596Z,983.10
2018-12-24T05:47:34.602Z,983.09
2018-12-24T05:48:34.573Z,983.08
2018-12-24T05:49:34.562Z,983.12
2018-12-24T05:50:34.551Z,983.17
2018-12-24T05:51:34.539Z,983.23
2018-12-24T05:52:34.557Z,983.19
2018-12-24T05:53:34.516Z,983.29
2018-12-24T05:54:34.504Z,983.35
2018-12-24T05:55:34.494Z,983.37
2018-12-24T05:56:34.484Z,983.41
2018-12-24T05:57:34.496Z,983.44
2018-12-24T05:58:34.464Z,983.46
2018-12-24T05:59:34.451Z,983.46
2018-12-24T06:00:34.437Z,983.53
2018-12-24T06:01:34.426Z,983.56
2018-12-24T06:02:34.426Z,983.55
2018-12-24T06:03:34.407Z,983.57
2018-12-24T06:04:34.393Z,983.59
2018-12-24T06:05:34.370Z,983.63
2018-12-24T06:06:34.369Z,983.67
2018-12-24T06:07:34.381Z,983.76
2018-12-24T06:08:34.347Z,983.74
2018-12-24T06:09:34.338Z,983.78
2018-12-24T06:10:34.326Z,983.74
2018-12-24T06:11:34.313Z,983.82
2018-12-24T06:12:34.316Z,983.85
2018-12-24T06:13:34.293Z,983.89
2018-12-24T06:14:34.279Z,983.90
2018-12-24T06:15:34.268Z,983.91
2018-12-24T06:16:34.268Z,984.00
2018-12-24T06:17:34.277Z,984.02
2018-12-24T06:18:34.234Z,984.11
2018-12-24T06:19:34.231Z,984.10
2018-12-24T06:20:37.774Z,984.12
2018-12-24T06:21:34.204Z,984.15
2018-12-24T06:22:34.188Z,984.18
2018-12-24T06:23:34.211Z,984.21
2018-12-24T06:24:34.167Z,984.25
2018-12-24T06:25:34.160Z,984.31
2018-12-24T06:26:34.146Z,984.24
2018-12-24T06:27:34.138Z,984.27
2018-12-24T06:28:34.132Z,984.31
2018-12-24T06:29:34.110Z,984.34
2018-12-24T06:30:34.098Z,984.39
2018-12-24T06:31:35.783Z,984.47
2018-12-24T06:32:34.077Z,984.45
2018-12-24T06:33:34.120Z,984.54
2018-12-24T06:34:34.053Z,984.51
2018-12-24T06:35:34.042Z,984.53
2018-12-24T06:36:34.030Z,984.60
2018-12-24T06:37:34.024Z,984.68
2018-12-24T06:38:34.023Z,984.63
2018-12-24T06:39:33.996Z,984.67
2018-12-24T06:40:33.985Z,984.72
2018-12-24T06:41:33.975Z,984.77
2018-12-24T06:42:33.963Z,984.79
2018-12-24T06:43:33.963Z,984.84
2018-12-24T06:44:33.941Z,984.90
2018-12-24T06:45:33.929Z,984.86
2018-12-24T06:46:33.909Z,984.85
2018-12-24T06:47:33.909Z,984.93
2018-12-24T06:48:33.908Z,984.95
2018-12-24T06:49:33.885Z,984.96
2018-12-24T06:50:33.876Z,984.98
2018-12-24T06:51:33.862Z,985.07
2018-12-24T06:52:33.851Z,985.03
2018-12-24T06:53:33.851Z,985.09
2018-12-24T06:54:33.826Z,985.19
2018-12-24T06:55:33.816Z,985.14
2018-12-24T06:56:33.804Z,985.17
2018-12-24T06:57:33.822Z,985.26
2018-12-24T06:58:33.798Z,985.23
2018-12-24T06:59:33.772Z,985.20
2018-12-24T07:00:33.759Z,985.18
2018-12-24T07:01:33.747Z,985.24
2018-12-24T07:02:33.740Z,985.28
2018-12-24T07:03:33.737Z,985.31
2018-12-24T07:04:33.716Z,985.31
2018-12-24T07:05:33.703Z,985.30
2018-12-24T07:06:33.692Z,985.36
2018-12-24T07:07:33.680Z,985.43
2018-12-24T07:08:33.747Z,985.49
2018-12-24T07:09:33.657Z,985.59
2018-12-24T07:10:33.647Z,985.68
2018-12-24T07:11:33.639Z,985.62
2018-12-24T07:12:33.625Z,985.68
2018-12-24T07:13:33.625Z,985.69
2018-12-24T07:14:33.601Z,985.79
2018-12-24T07:15:33.590Z,985.79
2018-12-24T07:16:33.583Z,985.82
2018-12-24T07:17:33.568Z,985.86
2018-12-24T07:18:33.567Z,985.87
2018-12-24T07:19:33.544Z,985.94
2018-12-24T07:20:33.538Z,985.95
2018-12-24T07:21:33.521Z,985.92
2018-12-24T07:22:33.516Z,985.97
2018-12-24T07:23:33.511Z,986.05
2018-12-24T07:24:33.487Z,986.07
2018-12-24T07:25:33.476Z,986.06
2018-12-24T07:26:33.464Z,986.06
2018-12-24T07:27:33.459Z,986.10
2018-12-24T07:28:33.555Z,986.04
2018-12-24T07:29:33.433Z,986.10
2018-12-24T07:30:33.522Z,986.09
2018-12-24T07:31:33.409Z,986.12
2018-12-24T07:32:33.397Z,986.12
2018-12-24T07:33:33.402Z,986.10
2018-12-24T07:34:33.374Z,986.19
2018-12-24T07:35:33.367Z,986.20
2018-12-24T07:36:33.353Z,986.18
2018-12-24T07:37:33.349Z,986.21
2018-12-24T07:38:33.351Z,986.22
2018-12-24T07:39:33.322Z,986.23
2018-12-24T07:40:33.306Z,986.24
2018-12-24T07:41:33.297Z,986.25
2018-12-24T07:42:33.284Z,986.31
2018-12-24T07:43:33.283Z,986.29
2018-12-24T07:44:33.261Z,986.27
2018-12-24T07:45:33.256Z,986.28
2018-12-24T07:46:33.239Z,986.33
2018-12-24T07:47:33.227Z,986.36
2018-12-24T07:48:33.229Z,986.40
2018-12-24T07:49:33.205Z,986.43
2018-12-24T07:50:33.198Z,986.36
2018-12-24T07:51:33.182Z,986.49
2018-12-24T07:52:33.172Z,986.49
2018-12-24T07:53:35.210Z,986.54
2018-12-24T07:54:33.150Z,986.57
2018-12-24T07:55:33.137Z,986.62
2018-12-24T07:56:33.127Z,986.58
2018-12-24T07:57:33.114Z,986.70
2018-12-24T07:58:33.116Z,986.69
2018-12-24T07:59:33.092Z,986.69
2018-12-24T08:00:33.083Z,986.69
2018-12-24T08:01:33.068Z,986.71
2018-12-24T08:02:33.063Z,986.70
2018-12-24T08:03:33.073Z,986.75
2018-12-24T08:04:33.035Z,986.80
2018-12-24T08:05:33.032Z,986.79
2018-12-24T08:06:33.014Z,986.85
2018-12-24T08:07:33.000Z,986.89
2018-12-24T08:08:33.003Z,986.89
2018-12-24T08:09:32.978Z,986.98
2018-12-24T08:10:32.966Z,987.01
2018-12-24T08:11:32.955Z,987.00
2018-12-24T08:12:32.957Z,987.03
2018-12-24T08:13:32.946Z,987.08
2018-12-24T08:14:33.463Z,987.05
2018-12-24T08:15:32.910Z,987.09
2018-12-24T08:16:32.908Z,987.08
2018-12-24T08:17:32.904Z,987.14
2018-12-24T08:18:32.888Z,987.16
2018-12-24T08:19:32.865Z,987.17
2018-12-24T08:20:32.855Z,987.22
2018-12-24T08:21:32.839Z,987.23
2018-12-24T08:22:32.832Z,987.18
2018-12-24T08:23:32.844Z,987.20
2018-12-24T08:24:32.814Z,987.18
2018-12-24T08:25:32.803Z,987.22
2018-12-24T08:26:32.790Z,987.20
2018-12-24T08:27:32.774Z,987.27
2018-12-24T08:28:32.767Z,987.32
2018-12-24T08:29:32.764Z,987.32
2018-12-24T08:30:32.746Z,987.35
2018-12-24T08:31:32.734Z,987.42
2018-12-24T08:32:32.718Z,987.44
2018-12-24T08:33:32.707Z,987.57
2018-12-24T08:34:32.711Z,987.57
2018-12-24T08:35:32.689Z,987.63
2018-12-24T08:36:32.676Z,987.67
2018-12-24T08:37:32.665Z,987.67
2018-12-24T08:38:32.654Z,987.73
2018-12-24T08:39:32.651Z,987.66
2018-12-24T08:40:32.629Z,987.69
2018-12-24T08:41:32.616Z,987.65
2018-12-24T08:42:32.608Z,987.73
2018-12-24T08:43:32.626Z,987.75
2018-12-24T08:44:32.596Z,987.76
2018-12-24T08:45:32.575Z,987.78
2018-12-24T08:46:32.560Z,987.79
2018-12-24T08:47:32.573Z,987.79
2018-12-24T08:48:32.536Z,987.85
2018-12-24T08:49:32.537Z,987.91
2018-12-24T08:50:32.516Z,987.96
2018-12-24T08:51:32.507Z,988.02
2018-12-24T08:52:32.492Z,988.00
2018-12-24T08:53:32.480Z,988.08
2018-12-24T08:54:32.485Z,988.07
2018-12-24T08:55:33.596Z,988.08
2018-12-24T08:56:32.447Z,988.08
2018-12-24T08:57:32.437Z,988.17
2018-12-24T08:58:32.427Z,988.13
2018-12-24T08:59:32.425Z,988.16
2018-12-24T09:00:32.402Z,988.12
2018-12-24T09:01:32.389Z,988.16
2018-12-24T09:02:32.378Z,988.13
2018-12-24T09:03:32.372Z,988.18
2018-12-24T09:04:32.364Z,988.23
2018-12-24T09:05:32.348Z,988.26
2018-12-24T09:06:32.335Z,988.26
2018-12-24T09:07:32.326Z,988.28
2018-12-24T09:08:32.315Z,988.30
2018-12-24T09:09:32.311Z,988.33
2018-12-24T09:10:32.288Z,988.37
2018-12-24T09:11:32.280Z,988.45
2018-12-24T09:12:32.267Z,988.43
2018-12-24T09:13:32.255Z,988.47
2018-12-24T09:14:32.257Z,988.55
2018-12-24T09:15:32.234Z,988.54
2018-12-24T09:16:32.222Z,988.53
2018-12-24T09:17:32.209Z,988.52
2018-12-24T09:18:32.198Z,988.51
2018-12-24T09:19:32.198Z,988.52
2018-12-24T09:20:32.177Z,988.59
2018-12-24T09:21:32.169Z,988.62
2018-12-24T09:22:32.154Z,988.66
2018-12-24T09:23:32.157Z,988.68
2018-12-24T09:24:32.146Z,988.74
2018-12-24T09:25:32.119Z,988.79
2018-12-24T09:26:32.114Z,988.81
2018-12-24T09:27:32.102Z,988.83
2018-12-24T09:28:32.085Z,988.82
2018-12-24T09:29:32.086Z,988.87
2018-12-24T09:30:32.062Z,988.87
2018-12-24T09:31:32.052Z,988.94
2018-12-24T09:32:32.041Z,988.87
2018-12-24T09:33:32.029Z,988.86
2018-12-24T09:34:32.029Z,988.89
2018-12-24T09:35:32.006Z,988.90
2018-12-24T09:36:31.997Z,988.96
2018-12-24T09:37:31.984Z,988.91
2018-12-24T09:38:31.973Z,988.94
2018-12-24T09:39:31.979Z,988.92
2018-12-24T09:40:31.946Z,988.95
2018-12-24T09:41:31.943Z,988.96
2018-12-24T09:42:31.922Z,988.98
2018-12-24T09:43:31.921Z,988.99
2018-12-24T09:44:31.914Z,988.99
2018-12-24T09:45:31.890Z,989.03
2018-12-24T09:46:31.882Z,989.04
2018-12-24T09:47:31.868Z,989.09
2018-12-24T09:48:31.861Z,989.16
2018-12-24T09:49:31.870Z,989.16
2018-12-24T09:50:31.833Z,989.14
2018-12-24T09:51:31.834Z,989.14
2018-12-24T09:52:31.810Z,989.12
2018-12-24T09:53:31.803Z,989.16
2018-12-24T09:54:31.807Z,989.16
2018-12-24T09:55:31.776Z,989.24
2018-12-24T09:56:31.765Z,989.23
2018-12-24T09:57:31.755Z,989.25
2018-12-24T09:58:31.745Z,989.28
2018-12-24T09:59:31.747Z,989.34
2018-12-24T10:00:31.720Z,989.35
2018-12-24T10:01:31.716Z,989.34
2018-12-24T10:02:31.698Z,989.41
2018-12-24T10:03:31.689Z,989.39
2018-12-24T10:04:31.695Z,989.39
2018-12-24T10:05:31.661Z,989.39
2018-12-24T10:06:31.652Z,989.42
2018-12-24T10:07:31.640Z,989.42
2018-12-24T10:08:31.637Z,989.39
2018-12-24T10:09:31.630Z,989.41
2018-12-24T10:10:31.606Z,989.43
2018-12-24T10:11:31.595Z,989.44
2018-12-24T10:12:31.608Z,989.45
2018-12-24T10:13:31.573Z,989.50
2018-12-24T10:14:31.583Z,989.48
2018-12-24T10:15:31.551Z,989.52
2018-12-24T10:16:31.539Z,989.56
2018-12-24T10:17:31.527Z,989.59
2018-12-24T10:18:31.516Z,989.60
2018-12-24T10:19:31.517Z,989.60
2018-12-24T10:20:31.498Z,989.62
2018-12-24T10:21:31.499Z,989.65
2018-12-24T10:22:31.472Z,989.66
2018-12-24T10:23:31.539Z,989.64
2018-12-24T10:24:31.460Z,989.68
2018-12-24T10:25:31.454Z,989.66
2018-12-24T10:26:31.417Z,989.66
2018-12-24T10:27:31.417Z,989.72
2018-12-24T10:28:31.403Z,989.66
2018-12-24T10:29:31.419Z,989.81
2018-12-24T10:30:31.382Z,989.75
2018-12-24T10:31:31.370Z,989.74
2018-12-24T10:32:31.358Z,989.81
2018-12-24T10:33:31.347Z,989.73
2018-12-24T10:34:31.403Z,989.72
2018-12-24T10:35:31.336Z,989.75
2018-12-24T10:36:31.317Z,989.80
2018-12-24T10:37:31.302Z,989.72
2018-12-24T10:38:31.292Z,989.81
2018-12-24T10:39:31.280Z,989.79
2018-12-24T10:40:31.298Z,989.81
2018-12-24T10:41:31.261Z,989.83
2018-12-24T10:42:31.355Z,989.81
2018-12-24T10:43:31.255Z,989.82
2018-12-24T10:44:31.223Z,989.83
2018-12-24T10:45:31.225Z,989.87
2018-12-24T10:46:31.199Z,989.88
2018-12-24T10:47:31.190Z,989.85
2018-12-24T10:48:31.174Z,989.88
2018-12-24T10:49:31.168Z,989.89
2018-12-24T10:50:31.180Z,989.87
2018-12-24T10:51:31.142Z,989.82
2018-12-24T10:52:31.128Z,989.98
2018-12-24T10:53:31.117Z,989.88
2018-12-24T10:54:32.205Z,989.90
2018-12-24T10:55:31.111Z,989.86
2018-12-24T10:56:31.086Z,989.91
2018-12-24T10:57:31.075Z,989.84
2018-12-24T10:58:31.067Z,989.92
2018-12-24T10:59:31.161Z,989.87
2018-12-24T11:00:31.054Z,989.84
2018-12-24T11:01:31.036Z,989.84
2018-12-24T11:02:31.020Z,989.86
2018-12-24T11:03:31.013Z,989.84
2018-12-24T11:04:31.006Z,989.89
2018-12-24T11:05:31.001Z,989.84
2018-12-24T11:06:30.978Z,989.79
2018-12-24T11:07:30.953Z,989.84
2018-12-24T11:08:30.951Z,989.84
2018-12-24T11:09:30.939Z,989.83
2018-12-24T11:10:30.942Z,989.79
2018-12-24T11:11:30.917Z,989.84
2018-12-24T11:12:30.906Z,989.84
2018-12-24T11:13:30.894Z,989.83
2018-12-24T11:14:30.884Z,989.78
2018-12-24T11:15:30.883Z,989.82
2018-12-24T11:16:30.870Z,989.84
2018-12-24T11:17:30.851Z,989.83
2018-12-24T11:18:30.848Z,989.80
2018-12-24T11:19:30.826Z,989.82
2018-12-24T11:20:30.829Z,989.78
2018-12-24T11:21:30.804Z,989.78
2018-12-24T11:22:30.792Z,989.78
2018-12-24T11:23:30.781Z,989.81
2018-12-24T11:24:30.754Z,989.82
2018-12-24T11:25:30.766Z,989.80
2018-12-24T11:26:30.752Z,989.82
2018-12-24T11:27:30.737Z,989.80
2018-12-24T11:28:30.727Z,989.83
2018-12-24T11:29:30.713Z,989.80
2018-12-24T11:30:30.717Z,989.83
2018-12-24T11:31:30.689Z,989.88
2018-12-24T11:32:30.681Z,989.85
2018-12-24T11:33:30.663Z,989.85
2018-12-24T11:34:30.649Z,989.80
2018-12-24T11:35:30.658Z,989.81
2018-12-24T11:36:30.629Z,989.84
2018-12-24T11:37:30.618Z,989.84
2018-12-24T11:38:30.607Z,989.83
2018-12-24T11:39:30.600Z,989.84
2018-12-24T11:40:30.637Z,989.87
2018-12-24T11:41:30.564Z,989.85
2018-12-24T11:42:30.563Z,989.87
2018-12-24T11:43:30.552Z,989.91
2018-12-24T11:44:30.540Z,989.96
2018-12-24T11:45:33.905Z,989.99
2018-12-24T11:46:30.517Z,990.06
2018-12-24T11:47:30.509Z,990.10
2018-12-24T11:48:30.496Z,990.13
2018-12-24T11:49:32.653Z,990.16
2018-12-24T11:50:30.489Z,990.18
2018-12-24T11:51:30.470Z,990.21
2018-12-24T11:52:30.450Z,990.24
2018-12-24T11:53:30.438Z,990.28
2018-12-24T11:54:30.434Z,990.28
2018-12-24T11:55:30.428Z,990.29
2018-12-24T11:56:30.404Z,990.34
2018-12-24T11:57:30.392Z,990.32
2018-12-24T11:58:30.434Z,990.35
2018-12-24T11:59:30.373Z,990.37
2018-12-24T12:00:32.556Z,990.37
2018-12-24T12:01:30.358Z,990.43
2018-12-24T12:02:32.444Z,990.39
2018-12-24T12:03:30.326Z,990.38
2018-12-24T12:04:30.403Z,990.40
2018-12-24T12:05:30.320Z,990.41
2018-12-24T12:06:30.291Z,990.41
2018-12-24T12:07:30.268Z,990.42
2018-12-24T12:08:30.270Z,990.42
2018-12-24T12:09:30.257Z,990.43
2018-12-24T12:10:32.337Z,990.49
2018-12-24T12:11:32.310Z,990.46
2018-12-24T12:12:30.223Z,990.47
2018-12-24T12:13:30.215Z,990.52
2018-12-24T12:14:30.201Z,990.57
2018-12-24T12:15:30.203Z,990.56
2018-12-24T12:16:31.794Z,990.56
2018-12-24T12:17:30.167Z,990.54
2018-12-24T12:18:30.358Z,990.58
2018-12-24T12:19:30.154Z,990.64
2018-12-24T12:20:30.146Z,990.67
2018-12-24T12:21:30.123Z,990.66
2018-12-24T12:22:30.112Z,990.65
2018-12-24T12:23:30.116Z,990.68
2018-12-24T12:24:30.092Z,990.71
2018-12-24T12:25:30.090Z,990.71
2018-12-24T12:26:32.037Z,990.71
2018-12-24T12:27:30.090Z,990.73
2018-12-24T12:28:30.043Z,990.76
2018-12-24T12:29:30.031Z,990.77
2018-12-24T12:30:30.034Z,990.79
2018-12-24T12:31:31.998Z,990.79
2018-12-24T12:32:29.997Z,990.83
2018-12-24T12:33:29.987Z,990.81
2018-12-24T12:34:29.975Z,990.85
2018-12-24T12:35:30.009Z,990.90
2018-12-24T12:36:29.953Z,990.87
2018-12-24T12:37:29.941Z,990.90
2018-12-24T12:38:30.121Z,990.89
2018-12-24T12:39:29.919Z,990.91
2018-12-24T12:40:29.907Z,990.92
2018-12-24T12:41:29.907Z,990.90
2018-12-24T12:42:29.885Z,990.92
2018-12-24T12:43:29.875Z,990.87
2018-12-24T12:44:29.862Z,990.91
2018-12-24T12:45:29.850Z,990.90
2018-12-24T12:46:29.850Z,990.91
2018-12-24T12:47:29.834Z,990.92
2018-12-24T12:48:29.818Z,990.99
2018-12-24T12:49:29.805Z,990.98
2018-12-24T12:50:29.795Z,991.01
2018-12-24T12:51:29.795Z,991.04
2018-12-24T12:52:29.773Z,991.03
2018-12-24T12:53:29.759Z,991.07
2018-12-24T12:54:29.750Z,991.08
2018-12-24T12:55:29.743Z,991.15
2018-12-24T12:56:29.739Z,991.19
2018-12-24T12:57:29.715Z,991.17
2018-12-24T12:58:29.703Z,991.17
2018-12-24T12:59:29.692Z,991.21
2018-12-24T13:00:29.680Z,991.24
2018-12-24T13:01:29.681Z,991.27
2018-12-24T13:02:29.658Z,991.27
2018-12-24T13:03:29.647Z,991.30
2018-12-24T13:04:29.637Z,991.29
2018-12-24T13:05:29.624Z,991.31
2018-12-24T13:06:29.625Z,991.35
2018-12-24T13:07:29.607Z,991.40
2018-12-24T13:08:29.591Z,991.39
2018-12-24T13:09:29.576Z,991.40
2018-12-24T13:10:29.569Z,991.42
2018-12-24T13:11:29.561Z,991.38
2018-12-24T13:12:29.643Z,991.47
2018-12-24T13:13:36.696Z,991.42
2018-12-24T13:14:30.518Z,991.49
2018-12-24T13:15:29.511Z,991.45
2018-12-24T13:16:29.512Z,991.48
2018-12-24T13:17:29.489Z,991.50
2018-12-24T13:18:31.493Z,991.47
2018-12-24T13:19:29.468Z,991.48
2018-12-24T13:20:29.455Z,991.54
2018-12-24T13:21:29.458Z,991.59
2018-12-24T13:22:29.462Z,991.55
2018-12-24T13:23:29.425Z,991.61
2018-12-24T13:24:29.410Z,991.63
2018-12-24T13:25:29.399Z,991.66
2018-12-24T13:26:29.398Z,991.65
2018-12-24T13:27:29.372Z,991.68
2018-12-24T13:28:29.361Z,991.73
2018-12-24T13:29:29.353Z,991.74
2018-12-24T13:30:29.358Z,991.76
2018-12-24T13:31:29.343Z,991.82
2018-12-24T13:32:29.317Z,991.79
2018-12-24T13:33:29.304Z,991.85
2018-12-24T13:34:29.297Z,991.90
2018-12-24T13:35:29.293Z,991.93
2018-12-24T13:36:29.282Z,991.94
2018-12-24T13:37:29.258Z,991.99
2018-12-24T13:38:29.249Z,992.04
2018-12-24T13:39:29.236Z,992.03
2018-12-24T13:40:29.225Z,992.09
2018-12-24T13:41:29.229Z,992.10
2018-12-24T13:42:29.196Z,992.11
2018-12-24T13:43:29.188Z,992.11
2018-12-24T13:44:29.171Z,992.12
2018-12-24T13:45:29.157Z,992.18
2018-12-24T13:46:29.172Z,992.22
2018-12-24T13:47:29.149Z,992.21
2018-12-24T13:48:29.151Z,992.21
2018-12-24T13:49:29.128Z,992.22
2018-12-24T13:50:29.122Z,992.22
2018-12-24T13:51:29.221Z,992.22
2018-12-24T13:52:29.089Z,992.24
2018-12-24T13:53:29.077Z,992.22
2018-12-24T13:54:29.067Z,992.27
2018-12-24T13:55:29.063Z,992.31
2018-12-24T13:56:29.056Z,992.37
2018-12-24T13:57:29.033Z,992.36
2018-12-24T13:58:29.021Z,992.31
2018-12-24T13:59:29.010Z,992.34
2018-12-24T14:00:28.999Z,992.38
2018-12-24T14:01:29.004Z,992.32
2018-12-24T14:02:28.978Z,992.31
2018-12-24T14:03:28.965Z,992.36
2018-12-24T14:04:28.959Z,992.34
2018-12-24T14:05:28.945Z,992.31
2018-12-24T14:06:28.949Z,992.33
2018-12-24T14:07:28.920Z,992.36
2018-12-24T14:08:28.909Z,992.40
2018-12-24T14:09:28.897Z,992.42
2018-12-24T14:10:28.886Z,992.43
2018-12-24T14:11:28.887Z,992.51
2018-12-24T14:12:28.867Z,992.53
2018-12-24T14:13:28.852Z,992.60
2018-12-24T14:14:28.840Z,992.59
2018-12-24T14:15:28.829Z,992.64
2018-12-24T14:16:28.837Z,992.63
2018-12-24T14:17:28.807Z,992.65
2018-12-24T14:18:28.797Z,992.67
2018-12-24T14:19:28.789Z,992.67
2018-12-24T14:20:28.773Z,992.68
2018-12-24T14:21:28.770Z,992.72
2018-12-24T14:22:28.755Z,992.69
2018-12-24T14:23:28.736Z,992.74
2018-12-24T14:24:28.727Z,992.79
2018-12-24T14:25:28.716Z,992.77
2018-12-24T14:26:28.721Z,992.81
2018-12-24T14:27:28.694Z,992.78
2018-12-24T14:28:28.684Z,992.82
2018-12-24T14:29:28.676Z,992.77
2018-12-24T14:30:28.671Z,992.79
2018-12-24T14:31:28.665Z,992.85
2018-12-24T14:32:28.639Z,992.87
2018-12-24T14:33:28.623Z,992.95
2018-12-24T14:34:28.615Z,992.99
2018-12-24T14:35:28.604Z,992.98
2018-12-24T14:36:28.604Z,993.00
2018-12-24T14:37:28.586Z,993.03
2018-12-24T14:38:28.569Z,993.01
2018-12-24T14:39:28.560Z,993.05
2018-12-24T14:40:28.547Z,993.09
2018-12-24T14:41:28.564Z,993.14
2018-12-24T14:42:28.526Z,993.16
2018-12-24T14:43:28.514Z,993.18
2018-12-24T14:44:28.502Z,993.17
2018-12-24T14:45:28.492Z,993.18
2018-12-24T14:46:28.495Z,993.18
2018-12-24T14:47:28.480Z,993.18
2018-12-24T14:48:28.458Z,993.17
2018-12-24T14:49:28.441Z,993.12
2018-12-24T14:50:28.434Z,993.04
2018-12-24T14:51:28.423Z,993.09
2018-12-24T14:52:28.475Z,993.12
2018-12-24T14:53:28.400Z,993.15
2018-12-24T14:54:28.389Z,993.17
2018-12-24T14:55:28.379Z,993.24
2018-12-24T14:56:28.366Z,993.23
2018-12-24T14:57:28.368Z,993.23
2018-12-24T14:58:28.348Z,993.23
2018-12-24T14:59:28.338Z,993.23
2018-12-24T15:00:28.336Z,993.25
2018-12-24T15:01:28.315Z,993.31
2018-12-24T15:02:28.314Z,993.41
2018-12-24T15:03:28.288Z,993.43
2018-12-24T15:04:28.278Z,993.40
2018-12-24T15:05:28.268Z,993.46
2018-12-24T15:06:28.253Z,993.44
2018-12-24T15:07:28.260Z,993.49
2018-12-24T15:08:28.232Z,993.40
2018-12-24T15:09:28.219Z,993.45
2018-12-24T15:10:28.196Z,993.51
2018-12-24T15:11:28.188Z,993.52
2018-12-24T15:12:28.197Z,993.56
2018-12-24T15:13:28.173Z,993.56
2018-12-24T15:14:28.166Z,993.53
2018-12-24T15:15:28.153Z,993.58
2018-12-24T15:16:34.064Z,993.55
2018-12-24T15:17:29.128Z,993.55
2018-12-24T15:18:28.120Z,993.56
2018-12-24T15:19:28.115Z,993.59
2018-12-24T15:20:28.096Z,993.65
2018-12-24T15:21:28.087Z,993.67
2018-12-24T15:22:28.088Z,993.70
2018-12-24T15:23:28.065Z,993.68
2018-12-24T15:24:28.050Z,993.74
2018-12-24T15:25:28.038Z,993.74
2018-12-24T15:26:28.027Z,993.74
2018-12-24T15:27:28.026Z,993.73
2018-12-24T15:28:28.013Z,993.76
2018-12-24T15:29:27.994Z,993.84
2018-12-24T15:30:27.983Z,993.84
2018-12-24T15:31:27.970Z,993.78
2018-12-24T15:32:27.977Z,993.83
2018-12-24T15:33:27.953Z,993.81
2018-12-24T15:34:27.938Z,993.87
2018-12-24T15:35:27.926Z,993.85
2018-12-24T15:36:27.915Z,993.81
2018-12-24T15:37:27.916Z,993.88
2018-12-24T15:38:27.893Z,993.88
2018-12-24T15:39:27.882Z,993.95
2018-12-24T15:40:27.870Z,993.91
2018-12-24T15:41:27.862Z,993.94
2018-12-24T15:42:27.859Z,993.96
2018-12-24T15:43:27.834Z,993.95
2018-12-24T15:44:27.824Z,993.93
2018-12-24T15:45:27.823Z,994.07
2018-12-24T15:46:27.804Z,994.02
2018-12-24T15:47:27.807Z,993.99
2018-12-24T15:48:27.778Z,994.01
2018-12-24T15:49:27.771Z,994.02
2018-12-24T15:50:27.755Z,994.06
2018-12-24T15:51:27.745Z,994.05
2018-12-24T15:52:27.745Z,994.08
2018-12-24T15:53:27.726Z,994.10
2018-12-24T15:54:27.712Z,994.12
2018-12-24T15:55:27.700Z,994.12
2018-12-24T15:56:27.681Z,994.08
2018-12-24T15:57:27.690Z,994.14
2018-12-24T15:58:27.665Z,994.14
2018-12-24T15:59:27.654Z,994.16
2018-12-24T16:00:27.642Z,994.15
2018-12-24T16:01:27.633Z,994.18
2018-12-24T16:02:27.632Z,994.19
2018-12-24T16:03:27.604Z,994.13
2018-12-24T16:04:27.611Z,994.19
2018-12-24T16:05:27.590Z,994.17
2018-12-24T16:06:27.578Z,994.19
2018-12-24T16:07:27.568Z,994.18
2018-12-24T16:08:29.610Z,994.19
2018-12-24T16:09:27.608Z,994.16
2018-12-24T16:10:27.529Z,994.15
2018-12-24T16:11:27.520Z,994.15
2018-12-24T16:12:27.522Z,994.23
2018-12-24T16:13:27.499Z,994.12
2018-12-24T16:14:27.492Z,994.14
2018-12-24T16:15:27.486Z,994.14
2018-12-24T16:16:27.473Z,994.14
2018-12-24T16:17:27.468Z,994.13
2018-12-24T16:18:27.441Z,994.14
2018-12-24T16:19:27.440Z,994.11
2018-12-24T16:20:27.417Z,994.15
2018-12-24T16:21:27.407Z,994.13
2018-12-24T16:22:27.403Z,994.18
2018-12-24T16:23:27.403Z,994.16
2018-12-24T16:24:27.362Z,994.20
2018-12-24T16:25:27.354Z,994.23
2018-12-24T16:26:27.350Z,994.28
2018-12-24T16:27:27.347Z,994.35
2018-12-24T16:28:27.348Z,994.38
2018-12-24T16:29:27.315Z,994.40
2018-12-24T16:30:27.309Z,994.49
2018-12-24T16:31:27.295Z,994.49
2018-12-24T16:32:27.290Z,994.54
2018-12-24T16:33:27.271Z,994.49
2018-12-24T16:34:27.261Z,994.58
2018-12-24T16:35:27.247Z,994.65
2018-12-24T16:36:27.233Z,994.67
2018-12-24T16:37:27.233Z,994.68
2018-12-24T16:38:27.218Z,994.77
2018-12-24T16:39:27.197Z,994.80
2018-12-24T16:40:27.191Z,994.84
2018-12-24T16:41:27.177Z,994.89
2018-12-24T16:42:27.180Z,994.94
2018-12-24T16:43:27.153Z,995.00
2018-12-24T16:44:27.143Z,995.01
2018-12-24T16:45:27.139Z,995.01
2018-12-24T16:46:27.118Z,995.00
2018-12-24T16:47:27.176Z,995.05
2018-12-24T16:48:27.093Z,995.06
2018-12-24T16:49:27.089Z,995.08
2018-12-24T16:50:27.085Z,995.14
2018-12-24T16:51:27.063Z,995.12
2018-12-24T16:52:27.053Z,995.14
2018-12-24T16:53:27.052Z,995.15
2018-12-24T16:54:27.028Z,995.11
2018-12-24T16:55:27.016Z,995.16
2018-12-24T16:56:27.005Z,995.18
2018-12-24T16:57:26.996Z,995.16
2018-12-24T16:58:26.998Z,995.20
2018-12-24T16:59:26.971Z,995.18
2018-12-24T17:00:26.960Z,995.17
2018-12-24T17:01:26.948Z,995.15
2018-12-24T17:02:26.951Z,995.17
2018-12-24T17:03:26.938Z,995.18
2018-12-24T17:04:26.919Z,995.15
2018-12-24T17:05:26.905Z,995.18
2018-12-24T17:06:26.894Z,995.12
2018-12-24T17:07:26.872Z,995.10
2018-12-24T17:08:26.887Z,995.09
2018-12-24T17:09:26.870Z,995.10
2018-12-24T17:10:26.854Z,995.08
2018-12-24T17:11:26.835Z,995.05
2018-12-24T17:12:26.825Z,995.04
2018-12-24T17:13:26.831Z,995.03
2018-12-24T17:14:26.805Z,994.98
2018-12-24T17:15:26.792Z,994.95
2018-12-24T17:16:26.781Z,994.96
2018-12-24T17:17:26.769Z,994.95
2018-12-24T17:18:26.779Z,994.97
2018-12-24T17:19:26.752Z,994.94
2018-12-24T17:20:26.736Z,994.96
2018-12-24T17:21:26.729Z,994.96
2018-12-24T17:22:26.712Z,994.95
2018-12-24T17:23:26.713Z,995.00
2018-12-24T17:24:26.689Z,994.98
2018-12-24T17:25:26.679Z,995.00
2018-12-24T17:26:26.669Z,994.99
2018-12-24T17:27:26.656Z,994.99
2018-12-24T17:28:26.659Z,995.00